sensor_id;sensor_type;location;lat;lon;timestamp;temperature;humidity
58568;DHT22;44354;46.192;-1.076;2022-08-04T00:02:08;24.30;1.00
58568;DHT22;44354;46.192;-1.076;2022-08-04T00:04:41;24.20;1.00
58568;DHT22;44354;46.192;-1.076;2022-08-04T00:09:59;24.10;1.00
58568;DHT22;44354;46.192;-1.076;2022-08-04T00:12:28;24.00;1.00
58568;DHT22;44354;46.192;-1.076;2022-08-04T00:14:59;24.00;1.00
58568;DHT22;44354;46.192;-1.076;2022-08-04T00:17:30;24.00;1.00
58568;DHT22;44354;46.192;-1.076;2022-08-04T00:19:59;24.00;1.00
58568;DHT22;44354;46.192;-1.076;2022-08-04T00:22:28;24.10;1.00
58568;DHT22;44354;46.192;-1.076;2022-08-04T00:24:55;24.00;1.00
58568;DHT22;44354;46.192;-1.076;2022-08-04T00:27:22;24.00;1.00
58568;DHT22;44354;46.192;-1.076;2022-08-04T00:29:49;24.00;1.00
58568;DHT22;44354;46.192;-1.076;2022-08-04T00:32:17;24.00;1.00
58568;DHT22;44354;46.192;-1.076;2022-08-04T00:34:43;23.90;1.00
58568;DHT22;44354;46.192;-1.076;2022-08-04T00:37:09;23.90;1.00
58568;DHT22;44354;46.192;-1.076;2022-08-04T00:39:35;23.80;1.00
58568;DHT22;44354;46.192;-1.076;2022-08-04T00:48:03;23.80;1.00
58568;DHT22;44354;46.192;-1.076;2022-08-04T00:50:41;23.70;1.00
58568;DHT22;44354;46.192;-1.076;2022-08-04T00:59:03;23.50;1.00
58568;DHT22;44354;46.192;-1.076;2022-08-04T01:02:16;23.40;1.00
58568;DHT22;44354;46.192;-1.076;2022-08-04T01:05:01;23.30;1.00
58568;DHT22;44354;46.192;-1.076;2022-08-04T01:10:57;23.20;1.00
58568;DHT22;44354;46.192;-1.076;2022-08-04T01:13:16;23.20;1.00
58568;DHT22;44354;46.192;-1.076;2022-08-04T01:15:59;23.20;2.10
58568;DHT22;44354;46.192;-1.076;2022-08-04T01:18:48;23.10;1.40
58568;DHT22;44354;46.192;-1.076;2022-08-04T01:26:39;22.90;1.00
58568;DHT22;44354;46.192;-1.076;2022-08-04T01:29:13;22.90;1.00
58568;DHT22;44354;46.192;-1.076;2022-08-04T01:32:01;23.00;1.00
58568;DHT22;44354;46.192;-1.076;2022-08-04T01:34:40;22.90;1.00
58568;DHT22;44354;46.192;-1.076;2022-08-04T01:40:03;22.90;8.60
58568;DHT22;44354;46.192;-1.076;2022-08-04T01:42:31;22.80;17.30
58568;DHT22;44354;46.192;-1.076;2022-08-04T01:45:00;22.90;19.40
58568;DHT22;44354;46.192;-1.076;2022-08-04T01:47:28;22.90;20.00
58568;DHT22;44354;46.192;-1.076;2022-08-04T01:50:03;22.90;22.60
58568;DHT22;44354;46.192;-1.076;2022-08-04T01:52:30;22.90;26.00
58568;DHT22;44354;46.192;-1.076;2022-08-04T01:54:56;22.90;25.40
58568;DHT22;44354;46.192;-1.076;2022-08-04T01:57:22;22.90;29.20
58568;DHT22;44354;46.192;-1.076;2022-08-04T01:59:50;22.90;28.10
58568;DHT22;44354;46.192;-1.076;2022-08-04T02:02:20;22.90;26.20
58568;DHT22;44354;46.192;-1.076;2022-08-04T02:04:46;22.90;28.10
58568;DHT22;44354;46.192;-1.076;2022-08-04T02:10:04;23.00;25.30
58568;DHT22;44354;46.192;-1.076;2022-08-04T02:12:55;22.90;27.80
58568;DHT22;44354;46.192;-1.076;2022-08-04T02:15:30;23.00;26.90
58568;DHT22;44354;46.192;-1.076;2022-08-04T02:18:04;23.00;32.80
58568;DHT22;44354;46.192;-1.076;2022-08-04T02:20:37;22.90;41.80
58568;DHT22;44354;46.192;-1.076;2022-08-04T02:23:13;22.90;67.80
58568;DHT22;44354;46.192;-1.076;2022-08-04T02:25:50;22.70;97.90
58568;DHT22;44354;46.192;-1.076;2022-08-04T02:31:16;22.70;99.90
58568;DHT22;44354;46.192;-1.076;2022-08-04T02:36:36;22.60;99.90
58568;DHT22;44354;46.192;-1.076;2022-08-04T02:39:04;22.60;99.90
58568;DHT22;44354;46.192;-1.076;2022-08-04T02:41:30;22.50;99.90
58568;DHT22;44354;46.192;-1.076;2022-08-04T02:44:02;22.50;99.90
58568;DHT22;44354;46.192;-1.076;2022-08-04T02:46:30;22.50;99.90
58568;DHT22;44354;46.192;-1.076;2022-08-04T02:48:56;22.50;99.90
58568;DHT22;44354;46.192;-1.076;2022-08-04T02:51:28;22.50;99.90
58568;DHT22;44354;46.192;-1.076;2022-08-04T02:53:57;22.50;99.90
58568;DHT22;44354;46.192;-1.076;2022-08-04T02:56:25;22.50;99.90
58568;DHT22;44354;46.192;-1.076;2022-08-04T02:59:29;22.50;99.90
58568;DHT22;44354;46.192;-1.076;2022-08-04T03:01:47;22.40;99.90
58568;DHT22;44354;46.192;-1.076;2022-08-04T03:04:26;22.40;99.90
58568;DHT22;44354;46.192;-1.076;2022-08-04T03:16:00;22.10;99.90
58568;DHT22;44354;46.192;-1.076;2022-08-04T03:18:50;22.20;99.90
58568;DHT22;44354;46.192;-1.076;2022-08-04T03:52:10;21.90;99.90
58568;DHT22;44354;46.192;-1.076;2022-08-04T04:00:39;21.90;99.90
58568;DHT22;44354;46.192;-1.076;2022-08-04T04:03:22;21.90;99.90
58568;DHT22;44354;46.192;-1.076;2022-08-04T04:22:59;21.90;99.90
58568;DHT22;44354;46.192;-1.076;2022-08-04T04:25:30;21.80;99.90
58568;DHT22;44354;46.192;-1.076;2022-08-04T04:49:58;21.20;99.90
58568;DHT22;44354;46.192;-1.076;2022-08-04T04:52:40;21.10;99.90
58568;DHT22;44354;46.192;-1.076;2022-08-04T04:55:30;21.00;99.90
58568;DHT22;44354;46.192;-1.076;2022-08-04T04:58:00;21.00;99.90
58568;DHT22;44354;46.192;-1.076;2022-08-04T05:03:51;21.00;99.90
58568;DHT22;44354;46.192;-1.076;2022-08-04T05:06:43;21.00;99.90
58568;DHT22;44354;46.192;-1.076;2022-08-04T05:09:44;20.90;99.90
58568;DHT22;44354;46.192;-1.076;2022-08-04T05:12:34;20.80;99.90
58568;DHT22;44354;46.192;-1.076;2022-08-04T05:15:03;20.80;99.90
58568;DHT22;44354;46.192;-1.076;2022-08-04T05:17:39;20.70;99.90
58568;DHT22;44354;46.192;-1.076;2022-08-04T05:20:13;20.70;99.90
58568;DHT22;44354;46.192;-1.076;2022-08-04T05:25:24;20.70;99.90
58568;DHT22;44354;46.192;-1.076;2022-08-04T05:28:09;20.70;99.90
58568;DHT22;44354;46.192;-1.076;2022-08-04T05:30:38;20.60;99.90
58568;DHT22;44354;46.192;-1.076;2022-08-04T05:33:14;20.60;99.90
58568;DHT22;44354;46.192;-1.076;2022-08-04T05:35:47;20.60;99.90
58568;DHT22;44354;46.192;-1.076;2022-08-04T05:38:17;20.70;99.90
58568;DHT22;44354;46.192;-1.076;2022-08-04T05:40:45;20.70;99.90
58568;DHT22;44354;46.192;-1.076;2022-08-04T05:43:11;20.70;99.90
58568;DHT22;44354;46.192;-1.076;2022-08-04T05:45:39;20.80;99.90
58568;DHT22;44354;46.192;-1.076;2022-08-04T05:48:07;20.80;99.90
58568;DHT22;44354;46.192;-1.076;2022-08-04T05:50:33;20.80;99.90
58568;DHT22;44354;46.192;-1.076;2022-08-04T05:52:59;20.80;99.90
58568;DHT22;44354;46.192;-1.076;2022-08-04T05:55:27;20.90;99.90
58568;DHT22;44354;46.192;-1.076;2022-08-04T05:57:55;21.00;99.90
58568;DHT22;44354;46.192;-1.076;2022-08-04T06:00:22;21.00;99.90
58568;DHT22;44354;46.192;-1.076;2022-08-04T06:02:50;21.00;99.90
58568;DHT22;44354;46.192;-1.076;2022-08-04T06:05:17;21.10;99.90
58568;DHT22;44354;46.192;-1.076;2022-08-04T06:07:44;21.20;99.90
58568;DHT22;44354;46.192;-1.076;2022-08-04T06:10:10;21.20;99.90
58568;DHT22;44354;46.192;-1.076;2022-08-04T06:12:57;21.30;99.90
58568;DHT22;44354;46.192;-1.076;2022-08-04T06:15:27;21.30;99.90
58568;DHT22;44354;46.192;-1.076;2022-08-04T06:17:57;21.30;99.90
58568;DHT22;44354;46.192;-1.076;2022-08-04T06:20:29;21.40;99.90
58568;DHT22;44354;46.192;-1.076;2022-08-04T06:23:00;21.40;99.90
58568;DHT22;44354;46.192;-1.076;2022-08-04T06:25:31;21.50;99.90
58568;DHT22;44354;46.192;-1.076;2022-08-04T06:27:58;21.50;99.90
58568;DHT22;44354;46.192;-1.076;2022-08-04T06:30:26;21.60;99.90
58568;DHT22;44354;46.192;-1.076;2022-08-04T06:32:53;21.70;99.90
58568;DHT22;44354;46.192;-1.076;2022-08-04T06:35:25;21.80;99.90
58568;DHT22;44354;46.192;-1.076;2022-08-04T06:37:53;21.90;99.90
58568;DHT22;44354;46.192;-1.076;2022-08-04T06:40:21;22.00;99.90
58568;DHT22;44354;46.192;-1.076;2022-08-04T06:42:48;22.10;99.90
58568;DHT22;44354;46.192;-1.076;2022-08-04T06:45:13;22.20;99.90
58568;DHT22;44354;46.192;-1.076;2022-08-04T06:47:41;22.20;99.90
58568;DHT22;44354;46.192;-1.076;2022-08-04T06:50:09;22.20;99.90
58568;DHT22;44354;46.192;-1.076;2022-08-04T06:52:35;22.10;99.90
58568;DHT22;44354;46.192;-1.076;2022-08-04T06:55:01;22.20;99.90
58568;DHT22;44354;46.192;-1.076;2022-08-04T06:57:28;22.10;99.90
58568;DHT22;44354;46.192;-1.076;2022-08-04T07:00:03;22.10;99.90
58568;DHT22;44354;46.192;-1.076;2022-08-04T07:02:33;22.10;99.90
58568;DHT22;44354;46.192;-1.076;2022-08-04T07:05:02;22.20;99.90
58568;DHT22;44354;46.192;-1.076;2022-08-04T07:07:28;22.40;99.90
58568;DHT22;44354;46.192;-1.076;2022-08-04T07:09:53;22.50;99.90
58568;DHT22;44354;46.192;-1.076;2022-08-04T07:12:19;22.60;99.90
58568;DHT22;44354;46.192;-1.076;2022-08-04T07:14:46;22.70;99.90
58568;DHT22;44354;46.192;-1.076;2022-08-04T07:17:14;22.80;99.90
58568;DHT22;44354;46.192;-1.076;2022-08-04T07:19:41;22.70;99.90
58568;DHT22;44354;46.192;-1.076;2022-08-04T07:22:09;22.80;99.90
58568;DHT22;44354;46.192;-1.076;2022-08-04T07:24:36;22.80;99.90
58568;DHT22;44354;46.192;-1.076;2022-08-04T07:27:04;22.90;99.90
58568;DHT22;44354;46.192;-1.076;2022-08-04T07:29:35;23.00;99.90
58568;DHT22;44354;46.192;-1.076;2022-08-04T07:32:03;23.10;99.90
58568;DHT22;44354;46.192;-1.076;2022-08-04T07:34:37;23.20;99.90
58568;DHT22;44354;46.192;-1.076;2022-08-04T07:37:04;23.30;99.90
58568;DHT22;44354;46.192;-1.076;2022-08-04T07:39:30;23.30;99.90
58568;DHT22;44354;46.192;-1.076;2022-08-04T07:41:59;23.30;99.90
58568;DHT22;44354;46.192;-1.076;2022-08-04T07:44:26;23.40;99.90
58568;DHT22;44354;46.192;-1.076;2022-08-04T07:46:52;23.40;99.90
58568;DHT22;44354;46.192;-1.076;2022-08-04T07:49:21;23.50;99.90
58568;DHT22;44354;46.192;-1.076;2022-08-04T07:51:48;23.70;99.90
58568;DHT22;44354;46.192;-1.076;2022-08-04T07:54:14;23.80;99.90
58568;DHT22;44354;46.192;-1.076;2022-08-04T07:56:42;23.90;99.90
58568;DHT22;44354;46.192;-1.076;2022-08-04T07:59:08;24.00;99.90
58568;DHT22;44354;46.192;-1.076;2022-08-04T08:01:35;24.10;99.90
58568;DHT22;44354;46.192;-1.076;2022-08-04T08:04:04;24.20;99.90
58568;DHT22;44354;46.192;-1.076;2022-08-04T08:06:31;24.40;99.90
58568;DHT22;44354;46.192;-1.076;2022-08-04T08:08:57;24.20;99.90
58568;DHT22;44354;46.192;-1.076;2022-08-04T08:11:25;24.20;99.90
58568;DHT22;44354;46.192;-1.076;2022-08-04T08:13:51;24.10;99.90
58568;DHT22;44354;46.192;-1.076;2022-08-04T08:16:17;24.00;99.90
58568;DHT22;44354;46.192;-1.076;2022-08-04T08:18:45;23.90;99.90
58568;DHT22;44354;46.192;-1.076;2022-08-04T08:21:17;23.80;99.90
58568;DHT22;44354;46.192;-1.076;2022-08-04T08:23:44;23.70;99.90
58568;DHT22;44354;46.192;-1.076;2022-08-04T08:26:09;23.70;99.90
58568;DHT22;44354;46.192;-1.076;2022-08-04T08:28:40;23.50;99.90
58568;DHT22;44354;46.192;-1.076;2022-08-04T08:31:06;23.40;99.90
58568;DHT22;44354;46.192;-1.076;2022-08-04T08:40:39;23.00;99.90
58568;DHT22;44354;46.192;-1.076;2022-08-04T08:52:25;22.90;99.90
58568;DHT22;44354;46.192;-1.076;2022-08-04T09:21:38;22.80;99.90
58568;DHT22;44354;46.192;-1.076;2022-08-04T09:31:14;22.70;99.90
58568;DHT22;44354;46.192;-1.076;2022-08-04T09:33:43;22.70;99.90
58568;DHT22;44354;46.192;-1.076;2022-08-04T09:36:31;22.60;1.00
58568;DHT22;44354;46.192;-1.076;2022-08-04T09:39:20;22.60;1.00
58568;DHT22;44354;46.192;-1.076;2022-08-04T09:47:37;22.30;1.00
58568;DHT22;44354;46.192;-1.076;2022-08-04T09:50:25;22.30;1.00
58568;DHT22;44354;46.192;-1.076;2022-08-04T09:55:33;22.30;1.00
58568;DHT22;44354;46.192;-1.076;2022-08-04T09:58:43;22.30;1.00
58568;DHT22;44354;46.192;-1.076;2022-08-04T10:01:18;22.30;1.00
58568;DHT22;44354;46.192;-1.076;2022-08-04T10:03:50;22.30;1.00
58568;DHT22;44354;46.192;-1.076;2022-08-04T10:06:33;22.40;1.00
58568;DHT22;44354;46.192;-1.076;2022-08-04T10:14:59;22.50;1.00
58568;DHT22;44354;46.192;-1.076;2022-08-04T10:20:54;22.50;1.00
58568;DHT22;44354;46.192;-1.076;2022-08-04T10:23:50;22.50;1.00
58568;DHT22;44354;46.192;-1.076;2022-08-04T10:26:45;22.50;1.00
58568;DHT22;44354;46.192;-1.076;2022-08-04T10:29:42;22.50;1.00
58568;DHT22;44354;46.192;-1.076;2022-08-04T10:40:46;22.60;7.40
58568;DHT22;44354;46.192;-1.076;2022-08-04T10:54:02;23.10;1.00
58568;DHT22;44354;46.192;-1.076;2022-08-04T10:56:58;23.20;1.00
58568;DHT22;44354;46.192;-1.076;2022-08-04T10:59:34;23.40;1.00
58568;DHT22;44354;46.192;-1.076;2022-08-04T11:05:00;23.50;99.90
58568;DHT22;44354;46.192;-1.076;2022-08-04T11:07:31;23.50;99.90
58568;DHT22;44354;46.192;-1.076;2022-08-04T11:09:59;23.40;99.90
58568;DHT22;44354;46.192;-1.076;2022-08-04T11:12:26;23.40;99.90
58568;DHT22;44354;46.192;-1.076;2022-08-04T11:14:57;23.30;99.90
58568;DHT22;44354;46.192;-1.076;2022-08-04T11:17:39;23.40;99.90
58568;DHT22;44354;46.192;-1.076;2022-08-04T11:28:34;24.40;99.90
58568;DHT22;44354;46.192;-1.076;2022-08-04T11:31:09;24.70;99.90
58568;DHT22;44354;46.192;-1.076;2022-08-04T11:33:46;25.10;99.90
58568;DHT22;44354;46.192;-1.076;2022-08-04T11:36:24;25.40;99.90
58568;DHT22;44354;46.192;-1.076;2022-08-04T11:39:14;25.80;99.90
58568;DHT22;44354;46.192;-1.076;2022-08-04T11:42:09;25.90;99.90
58568;DHT22;44354;46.192;-1.076;2022-08-04T11:44:50;26.10;99.90
58568;DHT22;44354;46.192;-1.076;2022-08-04T11:47:54;26.30;99.90
58568;DHT22;44354;46.192;-1.076;2022-08-04T11:50:51;26.40;99.90
58568;DHT22;44354;46.192;-1.076;2022-08-04T11:53:23;26.60;99.90
58568;DHT22;44354;46.192;-1.076;2022-08-04T11:55:52;26.80;99.90
58568;DHT22;44354;46.192;-1.076;2022-08-04T11:58:21;26.60;99.90
58568;DHT22;44354;46.192;-1.076;2022-08-04T12:01:26;26.80;99.90
58568;DHT22;44354;46.192;-1.076;2022-08-04T12:04:04;27.00;99.90
58568;DHT22;44354;46.192;-1.076;2022-08-04T12:09:47;27.70;99.90
58568;DHT22;44354;46.192;-1.076;2022-08-04T12:12:42;27.90;99.90
58568;DHT22;44354;46.192;-1.076;2022-08-04T12:15:29;28.30;99.90
58568;DHT22;44354;46.192;-1.076;2022-08-04T12:18:07;28.40;96.20
58568;DHT22;44354;46.192;-1.076;2022-08-04T12:20:50;28.20;90.90
58568;DHT22;44354;46.192;-1.076;2022-08-04T12:23:43;28.00;94.00
58568;DHT22;44354;46.192;-1.076;2022-08-04T12:26:19;27.90;99.60
58568;DHT22;44354;46.192;-1.076;2022-08-04T12:28:49;27.90;99.90
58568;DHT22;44354;46.192;-1.076;2022-08-04T12:31:22;28.00;99.90
58568;DHT22;44354;46.192;-1.076;2022-08-04T12:33:58;28.20;99.90
58568;DHT22;44354;46.192;-1.076;2022-08-04T12:39:12;28.50;99.90
58568;DHT22;44354;46.192;-1.076;2022-08-04T12:41:47;28.70;91.90
58568;DHT22;44354;46.192;-1.076;2022-08-04T12:44:16;28.80;90.40
58568;DHT22;44354;46.192;-1.076;2022-08-04T12:46:45;28.70;71.00
58568;DHT22;44354;46.192;-1.076;2022-08-04T12:49:14;28.30;73.40
58568;DHT22;44354;46.192;-1.076;2022-08-04T12:51:43;28.40;82.60
58568;DHT22;44354;46.192;-1.076;2022-08-04T12:54:10;28.10;71.80
58568;DHT22;44354;46.192;-1.076;2022-08-04T12:56:36;28.00;77.50
58568;DHT22;44354;46.192;-1.076;2022-08-04T12:59:06;27.90;67.20
58568;DHT22;44354;46.192;-1.076;2022-08-04T13:01:33;27.90;52.40
58568;DHT22;44354;46.192;-1.076;2022-08-04T13:04:15;27.90;57.00
58568;DHT22;44354;46.192;-1.076;2022-08-04T13:06:43;27.80;63.40
58568;DHT22;44354;46.192;-1.076;2022-08-04T13:09:18;27.80;65.90
58568;DHT22;44354;46.192;-1.076;2022-08-04T13:11:56;27.80;64.30
58568;DHT22;44354;46.192;-1.076;2022-08-04T13:14:24;27.90;77.50
58568;DHT22;44354;46.192;-1.076;2022-08-04T13:16:57;27.90;65.80
58568;DHT22;44354;46.192;-1.076;2022-08-04T13:19:25;27.90;67.40
58568;DHT22;44354;46.192;-1.076;2022-08-04T13:21:51;27.90;64.50
58568;DHT22;44354;46.192;-1.076;2022-08-04T13:24:19;27.90;62.90
58568;DHT22;44354;46.192;-1.076;2022-08-04T13:26:57;27.90;75.40
58568;DHT22;44354;46.192;-1.076;2022-08-04T13:29:28;27.80;73.20
58568;DHT22;44354;46.192;-1.076;2022-08-04T13:31:54;27.80;74.20
58568;DHT22;44354;46.192;-1.076;2022-08-04T13:34:21;27.70;68.50
58568;DHT22;44354;46.192;-1.076;2022-08-04T13:36:48;27.60;79.70
58568;DHT22;44354;46.192;-1.076;2022-08-04T13:39:18;27.50;86.40
58568;DHT22;44354;46.192;-1.076;2022-08-04T13:41:47;27.50;89.40
58568;DHT22;44354;46.192;-1.076;2022-08-04T13:44:26;27.60;85.80
58568;DHT22;44354;46.192;-1.076;2022-08-04T13:47:02;27.60;85.90
58568;DHT22;44354;46.192;-1.076;2022-08-04T13:49:29;27.60;86.30
58568;DHT22;44354;46.192;-1.076;2022-08-04T13:51:58;27.50;91.10
58568;DHT22;44354;46.192;-1.076;2022-08-04T13:54:27;27.50;91.40
58568;DHT22;44354;46.192;-1.076;2022-08-04T13:57:00;27.60;86.50
58568;DHT22;44354;46.192;-1.076;2022-08-04T13:59:27;27.70;83.20
58568;DHT22;44354;46.192;-1.076;2022-08-04T14:02:08;28.00;80.50
58568;DHT22;44354;46.192;-1.076;2022-08-04T14:04:40;28.50;66.60
58568;DHT22;44354;46.192;-1.076;2022-08-04T14:07:15;28.70;53.00
58568;DHT22;44354;46.192;-1.076;2022-08-04T14:09:42;28.50;45.40
58568;DHT22;44354;46.192;-1.076;2022-08-04T14:12:10;28.30;56.60
58568;DHT22;44354;46.192;-1.076;2022-08-04T14:14:47;28.20;50.70
58568;DHT22;44354;46.192;-1.076;2022-08-04T14:17:15;28.00;56.40
58568;DHT22;44354;46.192;-1.076;2022-08-04T14:19:57;27.90;59.40
58568;DHT22;44354;46.192;-1.076;2022-08-04T14:22:28;27.80;61.00
58568;DHT22;44354;46.192;-1.076;2022-08-04T14:24:57;27.70;59.00
58568;DHT22;44354;46.192;-1.076;2022-08-04T14:27:24;27.50;61.50
58568;DHT22;44354;46.192;-1.076;2022-08-04T14:29:50;27.60;65.40
58568;DHT22;44354;46.192;-1.076;2022-08-04T14:32:15;27.70;65.90
58568;DHT22;44354;46.192;-1.076;2022-08-04T14:34:43;28.00;39.30
58568;DHT22;44354;46.192;-1.076;2022-08-04T14:37:12;28.60;12.50
58568;DHT22;44354;46.192;-1.076;2022-08-04T14:39:44;29.00;1.00
58568;DHT22;44354;46.192;-1.076;2022-08-04T14:42:14;29.00;1.00
58568;DHT22;44354;46.192;-1.076;2022-08-04T14:44:54;28.60;1.00
58568;DHT22;44354;46.192;-1.076;2022-08-04T14:47:46;28.40;1.00
58568;DHT22;44354;46.192;-1.076;2022-08-04T14:50:13;28.40;1.00
58568;DHT22;44354;46.192;-1.076;2022-08-04T14:52:39;28.50;1.00
58568;DHT22;44354;46.192;-1.076;2022-08-04T14:55:22;28.70;1.00
58568;DHT22;44354;46.192;-1.076;2022-08-04T14:57:49;28.60;1.00
58568;DHT22;44354;46.192;-1.076;2022-08-04T15:00:30;28.50;1.00
58568;DHT22;44354;46.192;-1.076;2022-08-04T15:03:01;28.40;1.00
58568;DHT22;44354;46.192;-1.076;2022-08-04T15:05:28;28.20;1.00
58568;DHT22;44354;46.192;-1.076;2022-08-04T15:07:55;28.00;1.00
58568;DHT22;44354;46.192;-1.076;2022-08-04T15:10:21;27.90;2.20
58568;DHT22;44354;46.192;-1.076;2022-08-04T15:12:47;27.80;10.30
58568;DHT22;44354;46.192;-1.076;2022-08-04T15:15:13;27.60;14.60
58568;DHT22;44354;46.192;-1.076;2022-08-04T15:17:39;27.60;17.90
58568;DHT22;44354;46.192;-1.076;2022-08-04T15:20:07;27.70;17.20
58568;DHT22;44354;46.192;-1.076;2022-08-04T15:22:34;27.70;18.30
58568;DHT22;44354;46.192;-1.076;2022-08-04T15:24:59;27.90;19.90
58568;DHT22;44354;46.192;-1.076;2022-08-04T15:27:28;27.90;23.40
58568;DHT22;44354;46.192;-1.076;2022-08-04T15:30:02;28.00;27.10
58568;DHT22;44354;46.192;-1.076;2022-08-04T15:32:31;28.50;17.30
58568;DHT22;44354;46.192;-1.076;2022-08-04T15:35:02;29.00;2.30
58568;DHT22;44354;46.192;-1.076;2022-08-04T15:37:58;29.10;1.00
58568;DHT22;44354;46.192;-1.076;2022-08-04T15:40:48;29.40;31.50
58568;DHT22;44354;46.192;-1.076;2022-08-04T15:45:51;28.70;90.00
58568;DHT22;44354;46.192;-1.076;2022-08-04T15:53:22;28.70;74.00
58568;DHT22;44354;46.192;-1.076;2022-08-04T15:55:48;28.80;73.10
58568;DHT22;44354;46.192;-1.076;2022-08-04T15:58:15;29.10;56.70
58568;DHT22;44354;46.192;-1.076;2022-08-04T16:19:48;28.40;76.80
58568;DHT22;44354;46.192;-1.076;2022-08-04T16:22:38;28.40;83.50
58568;DHT22;44354;46.192;-1.076;2022-08-04T16:25:06;28.10;91.10
58568;DHT22;44354;46.192;-1.076;2022-08-04T16:27:40;28.00;86.00
58568;DHT22;44354;46.192;-1.076;2022-08-04T16:30:08;27.80;88.50
58568;DHT22;44354;46.192;-1.076;2022-08-04T16:32:45;27.80;87.20
58568;DHT22;44354;46.192;-1.076;2022-08-04T16:35:23;27.80;85.20
58568;DHT22;44354;46.192;-1.076;2022-08-04T16:37:53;27.70;83.60
58568;DHT22;44354;46.192;-1.076;2022-08-04T16:40:34;27.80;85.80
58568;DHT22;44354;46.192;-1.076;2022-08-04T16:43:03;28.00;82.10
58568;DHT22;44354;46.192;-1.076;2022-08-04T16:48:20;28.40;60.00
58568;DHT22;44354;46.192;-1.076;2022-08-04T16:50:49;28.60;46.10
58568;DHT22;44354;46.192;-1.076;2022-08-04T16:53:20;28.60;56.20
58568;DHT22;44354;46.192;-1.076;2022-08-04T16:55:50;28.60;35.10
58568;DHT22;44354;46.192;-1.076;2022-08-04T16:58:45;28.30;44.20
58568;DHT22;44354;46.192;-1.076;2022-08-04T17:01:14;28.30;48.00
58568;DHT22;44354;46.192;-1.076;2022-08-04T17:03:49;28.60;52.20
58568;DHT22;44354;46.192;-1.076;2022-08-04T17:06:15;28.70;30.70
58568;DHT22;44354;46.192;-1.076;2022-08-04T17:08:45;28.50;32.00
58568;DHT22;44354;46.192;-1.076;2022-08-04T17:11:13;28.40;33.50
58568;DHT22;44354;46.192;-1.076;2022-08-04T17:13:43;28.10;41.80
58568;DHT22;44354;46.192;-1.076;2022-08-04T17:16:13;27.80;55.40
58568;DHT22;44354;46.192;-1.076;2022-08-04T17:18:43;27.60;70.30
58568;DHT22;44354;46.192;-1.076;2022-08-04T17:21:21;27.60;73.70
58568;DHT22;44354;46.192;-1.076;2022-08-04T17:23:49;27.30;85.60
58568;DHT22;44354;46.192;-1.076;2022-08-04T17:26:21;27.20;84.10
58568;DHT22;44354;46.192;-1.076;2022-08-04T17:28:50;27.00;90.10
58568;DHT22;44354;46.192;-1.076;2022-08-04T17:31:16;26.80;87.60
58568;DHT22;44354;46.192;-1.076;2022-08-04T17:33:44;26.60;97.90
58568;DHT22;44354;46.192;-1.076;2022-08-04T17:36:15;26.20;99.90
58568;DHT22;44354;46.192;-1.076;2022-08-04T17:38:47;26.20;99.90
58568;DHT22;44354;46.192;-1.076;2022-08-04T17:41:15;26.00;99.90
58568;DHT22;44354;46.192;-1.076;2022-08-04T17:43:55;25.80;99.90
58568;DHT22;44354;46.192;-1.076;2022-08-04T17:49:04;25.10;99.90
58568;DHT22;44354;46.192;-1.076;2022-08-04T17:54:06;25.10;99.90
58568;DHT22;44354;46.192;-1.076;2022-08-04T18:01:42;25.00;99.90
58568;DHT22;44354;46.192;-1.076;2022-08-04T18:04:36;25.20;99.90
58568;DHT22;44354;46.192;-1.076;2022-08-04T18:07:16;25.40;99.90
58568;DHT22;44354;46.192;-1.076;2022-08-04T18:09:49;25.50;99.90
58568;DHT22;44354;46.192;-1.076;2022-08-04T18:12:24;25.70;99.90
58568;DHT22;44354;46.192;-1.076;2022-08-04T18:14:58;25.70;99.90
58568;DHT22;44354;46.192;-1.076;2022-08-04T18:17:38;25.60;99.90
58568;DHT22;44354;46.192;-1.076;2022-08-04T18:20:09;25.30;99.90
58568;DHT22;44354;46.192;-1.076;2022-08-04T18:22:37;25.20;99.90
58568;DHT22;44354;46.192;-1.076;2022-08-04T18:25:07;25.10;99.90
58568;DHT22;44354;46.192;-1.076;2022-08-04T18:27:33;24.90;99.90
58568;DHT22;44354;46.192;-1.076;2022-08-04T18:29:59;24.80;99.90
58568;DHT22;44354;46.192;-1.076;2022-08-04T18:32:24;24.70;99.90
58568;DHT22;44354;46.192;-1.076;2022-08-04T18:34:52;24.50;99.90
58568;DHT22;44354;46.192;-1.076;2022-08-04T18:37:18;24.30;99.90
58568;DHT22;44354;46.192;-1.076;2022-08-04T18:39:44;24.10;99.90
58568;DHT22;44354;46.192;-1.076;2022-08-04T18:42:10;24.10;99.90
58568;DHT22;44354;46.192;-1.076;2022-08-04T18:44:36;24.10;99.90
58568;DHT22;44354;46.192;-1.076;2022-08-04T18:47:03;23.90;99.90
58568;DHT22;44354;46.192;-1.076;2022-08-04T18:49:29;23.80;99.90
58568;DHT22;44354;46.192;-1.076;2022-08-04T18:51:55;23.70;99.90
58568;DHT22;44354;46.192;-1.076;2022-08-04T18:54:22;23.50;99.90
58568;DHT22;44354;46.192;-1.076;2022-08-04T18:56:50;23.40;99.90
58568;DHT22;44354;46.192;-1.076;2022-08-04T18:59:16;23.30;99.90
58568;DHT22;44354;46.192;-1.076;2022-08-04T19:01:42;23.30;99.90
58568;DHT22;44354;46.192;-1.076;2022-08-04T19:04:09;23.20;99.90
58568;DHT22;44354;46.192;-1.076;2022-08-04T19:06:35;23.10;99.90
58568;DHT22;44354;46.192;-1.076;2022-08-04T19:09:03;22.80;99.90
58568;DHT22;44354;46.192;-1.076;2022-08-04T19:11:29;22.80;99.90
58568;DHT22;44354;46.192;-1.076;2022-08-04T19:13:55;22.80;99.90
58568;DHT22;44354;46.192;-1.076;2022-08-04T19:16:21;22.60;99.90
58568;DHT22;44354;46.192;-1.076;2022-08-04T19:18:46;22.60;99.90
58568;DHT22;44354;46.192;-1.076;2022-08-04T19:21:12;22.50;99.90
58568;DHT22;44354;46.192;-1.076;2022-08-04T19:23:38;22.50;99.90
58568;DHT22;44354;46.192;-1.076;2022-08-04T19:26:04;22.50;99.90
58568;DHT22;44354;46.192;-1.076;2022-08-04T19:28:31;22.50;99.90
58568;DHT22;44354;46.192;-1.076;2022-08-04T19:30:57;22.50;99.90
58568;DHT22;44354;46.192;-1.076;2022-08-04T19:33:23;22.50;99.90
58568;DHT22;44354;46.192;-1.076;2022-08-04T19:35:49;22.40;99.90
58568;DHT22;44354;46.192;-1.076;2022-08-04T19:38:15;22.40;99.90
58568;DHT22;44354;46.192;-1.076;2022-08-04T19:40:43;22.40;99.90
58568;DHT22;44354;46.192;-1.076;2022-08-04T19:43:10;22.30;99.90
58568;DHT22;44354;46.192;-1.076;2022-08-04T19:45:36;22.20;99.90
58568;DHT22;44354;46.192;-1.076;2022-08-04T19:48:02;22.10;99.90
58568;DHT22;44354;46.192;-1.076;2022-08-04T19:50:30;22.10;99.90
58568;DHT22;44354;46.192;-1.076;2022-08-04T19:52:56;22.00;99.90
58568;DHT22;44354;46.192;-1.076;2022-08-04T19:55:23;22.00;99.90
58568;DHT22;44354;46.192;-1.076;2022-08-04T19:57:50;22.00;99.90
58568;DHT22;44354;46.192;-1.076;2022-08-04T20:00:18;22.00;99.90
58568;DHT22;44354;46.192;-1.076;2022-08-04T20:02:44;22.00;99.90
58568;DHT22;44354;46.192;-1.076;2022-08-04T20:05:11;22.00;99.90
58568;DHT22;44354;46.192;-1.076;2022-08-04T20:07:37;21.90;99.90
58568;DHT22;44354;46.192;-1.076;2022-08-04T20:10:05;21.90;99.90
58568;DHT22;44354;46.192;-1.076;2022-08-04T20:12:31;21.90;99.90
58568;DHT22;44354;46.192;-1.076;2022-08-04T20:14:57;21.90;99.90
58568;DHT22;44354;46.192;-1.076;2022-08-04T20:17:23;22.00;99.90